createdAt,value
2017-12-14T00:01:43.487Z,2.83
2017-12-14T00:04:11.842Z,2.62
2017-12-14T00:06:40.982Z,4.15
2017-12-14T00:09:10.105Z,4.03
2017-12-14T00:11:38.615Z,1.80
2017-12-14T00:14:07.754Z,3.95
2017-12-14T00:16:36.118Z,4.55
2017-12-14T00:19:04.513Z,3.72
2017-12-14T00:21:32.908Z,6.28
2017-12-14T00:24:01.267Z,1.35
2017-12-14T00:26:29.662Z,2.58
2017-12-14T00:28:58.021Z,0.80
2017-12-14T00:31:26.398Z,1.37
2017-12-14T00:33:54.777Z,3.03
2017-12-14T00:36:23.145Z,2.05
2017-12-14T00:38:51.529Z,2.30
2017-12-14T00:41:19.897Z,5.50
2017-12-14T00:43:48.282Z,8.02
2017-12-14T00:46:16.648Z,2.28
2017-12-14T00:48:45.034Z,5.28
2017-12-14T00:51:13.423Z,1.10
2017-12-14T00:53:41.783Z,7.40
2017-12-14T00:56:10.172Z,9.05
2017-12-14T00:58:38.528Z,4.30
2017-12-14T01:01:07.238Z,3.70
2017-12-14T01:03:35.598Z,3.58
2017-12-14T01:06:04.464Z,1.10
2017-12-14T01:08:33.614Z,4.70
2017-12-14T01:11:02.377Z,3.42
2017-12-14T01:13:30.881Z,1.40
2017-12-14T01:15:59.246Z,22.35
2017-12-14T01:18:27.605Z,1.75
2017-12-14T01:20:55.996Z,18.00
2017-12-14T01:23:24.357Z,9.57
2017-12-14T01:25:53.155Z,16.83
2017-12-14T01:28:21.515Z,7.12
2017-12-14T01:30:50.651Z,4.55
2017-12-14T01:33:19.034Z,3.83
2017-12-14T01:35:48.162Z,2.95
2017-12-14T01:38:16.569Z,12.10
2017-12-14T01:40:44.930Z,6.90
2017-12-14T01:43:14.069Z,4.82
2017-12-14T01:45:43.217Z,6.40
2017-12-14T01:48:11.584Z,2.55
2017-12-14T01:50:39.984Z,1.70
2017-12-14T01:53:09.115Z,2.03
2017-12-14T01:55:37.493Z,1.42
2017-12-14T01:58:05.875Z,1.12
2017-12-14T02:00:34.253Z,2.55
2017-12-14T02:03:02.809Z,2.17
2017-12-14T02:05:31.167Z,1.05
2017-12-14T02:07:59.536Z,1.80
2017-12-14T02:10:27.922Z,1.30
2017-12-14T02:12:57.050Z,1.12
2017-12-14T02:15:25.460Z,1.00
2017-12-14T02:17:53.827Z,1.60
2017-12-14T02:20:22.185Z,1.73
2017-12-14T02:22:50.574Z,2.22
2017-12-14T02:25:18.938Z,1.27
2017-12-14T02:27:47.474Z,0.70
2017-12-14T02:30:16.098Z,0.85
2017-12-14T02:32:45.233Z,0.77
2017-12-14T02:35:13.614Z,0.70
2017-12-14T02:37:42.012Z,0.70
2017-12-14T02:40:10.561Z,0.57
2017-12-14T02:42:38.922Z,0.40
2017-12-14T02:45:07.277Z,0.57
2017-12-14T02:47:36.423Z,0.40
2017-12-14T02:50:04.794Z,0.60
2017-12-14T02:52:33.285Z,0.37
2017-12-14T02:55:01.632Z,0.30
2017-12-14T02:57:29.998Z,0.40
2017-12-14T02:59:58.388Z,0.30
2017-12-14T03:02:26.753Z,0.30
2017-12-14T03:04:55.187Z,0.50
2017-12-14T03:07:23.553Z,0.30
2017-12-14T03:09:51.909Z,0.40
2017-12-14T03:12:20.292Z,0.30
2017-12-14T03:14:48.686Z,0.32
2017-12-14T03:17:17.090Z,0.50
2017-12-14T03:19:45.456Z,0.50
2017-12-14T03:22:13.817Z,0.50
2017-12-14T03:24:42.203Z,0.75
2017-12-14T03:27:11.335Z,0.50
2017-12-14T03:29:40.039Z,0.85
2017-12-14T03:32:09.174Z,1.00
2017-12-14T03:34:37.695Z,1.12
2017-12-14T03:37:06.440Z,1.15
2017-12-14T03:39:34.797Z,1.05
2017-12-14T03:42:03.491Z,1.05
2017-12-14T03:44:31.848Z,1.00
2017-12-14T03:47:00.230Z,1.00
2017-12-14T03:49:29.391Z,1.10
2017-12-14T03:51:57.753Z,1.05
2017-12-14T03:54:26.313Z,0.70
2017-12-14T03:56:54.680Z,1.12
2017-12-14T04:01:57.654Z,0.85
2017-12-14T04:04:26.026Z,1.58
2017-12-14T04:06:54.763Z,0.90
2017-12-14T04:09:23.157Z,0.75
2017-12-14T04:11:51.548Z,1.40
2017-12-14T04:14:19.946Z,0.90
2017-12-14T04:16:49.085Z,1.00
2017-12-14T04:19:17.628Z,1.27
2017-12-14T04:21:46.767Z,0.90
2017-12-14T04:24:15.168Z,1.25
2017-12-14T04:26:44.039Z,1.12
2017-12-14T04:29:12.875Z,1.25
2017-12-14T04:31:42.132Z,1.20
2017-12-14T04:34:11.072Z,1.50
2017-12-14T04:36:39.848Z,1.40
2017-12-14T04:39:08.711Z,1.48
2017-12-14T04:41:37.543Z,1.30
2017-12-14T04:44:07.280Z,1.37
2017-12-14T04:46:36.309Z,1.40
2017-12-14T04:49:04.700Z,1.33
2017-12-14T04:51:33.981Z,1.10
2017-12-14T04:54:02.362Z,1.10
2017-12-14T04:56:31.022Z,0.65
2017-12-14T04:58:59.395Z,1.23
2017-12-14T05:01:27.771Z,0.50
2017-12-14T05:03:56.162Z,0.70
2017-12-14T05:06:24.526Z,0.62
2017-12-14T05:08:53.245Z,0.93
2017-12-14T05:11:30.754Z,0.73
2017-12-14T05:14:04.309Z,0.60
2017-12-14T05:16:33.800Z,0.50
2017-12-14T05:19:04.967Z,0.60
2017-12-14T05:21:37.392Z,0.95
2017-12-14T05:24:05.827Z,0.70
2017-12-14T05:26:36.476Z,0.80
2017-12-14T05:29:08.606Z,0.82
2017-12-14T05:31:38.577Z,0.40
2017-12-14T05:34:06.983Z,0.60
2017-12-14T05:36:35.376Z,0.60
2017-12-14T05:39:04.090Z,0.73
2017-12-14T05:41:38.766Z,0.80
2017-12-14T05:44:12.255Z,0.60
2017-12-14T05:46:41.759Z,1.00
2017-12-14T05:49:10.900Z,0.43
2017-12-14T05:51:39.268Z,0.60
2017-12-14T05:54:07.669Z,0.50
2017-12-14T05:56:36.050Z,0.60
2017-12-14T05:59:04.577Z,0.40
2017-12-14T06:01:33.709Z,0.80
2017-12-14T06:04:02.078Z,0.52
2017-12-14T06:06:30.473Z,0.50
2017-12-14T06:08:58.835Z,0.70
2017-12-14T06:11:27.219Z,0.40
2017-12-14T06:13:55.615Z,0.70
2017-12-14T06:16:24.073Z,0.40
2017-12-14T06:18:52.443Z,0.50
2017-12-14T06:21:20.854Z,0.30
2017-12-14T06:23:49.233Z,0.43
2017-12-14T06:26:17.605Z,0.50
2017-12-14T06:28:45.989Z,0.40
2017-12-14T06:31:14.360Z,0.25
2017-12-14T06:33:43.063Z,0.32
2017-12-14T06:36:12.192Z,0.68
2017-12-14T06:38:40.573Z,0.45
2017-12-14T06:41:08.968Z,0.40
2017-12-14T06:43:37.331Z,0.60
2017-12-14T06:46:05.965Z,0.37
2017-12-14T06:48:34.363Z,0.30
2017-12-14T06:51:02.734Z,0.35
2017-12-14T06:53:31.136Z,0.45
2017-12-14T06:56:00.286Z,0.55
2017-12-14T06:58:28.718Z,0.40
2017-12-14T07:00:57.108Z,0.40
2017-12-14T07:03:29.542Z,0.35
2017-12-14T07:05:57.949Z,0.60
2017-12-14T07:08:28.547Z,0.28
2017-12-14T07:10:56.952Z,0.47
2017-12-14T07:13:25.313Z,0.57
2017-12-14T07:15:53.833Z,0.70
2017-12-14T07:18:23.165Z,0.57
2017-12-14T07:20:51.542Z,0.43
2017-12-14T07:23:19.935Z,0.30
2017-12-14T07:25:48.312Z,0.45
2017-12-14T07:28:16.914Z,0.55
2017-12-14T07:30:45.282Z,0.68
2017-12-14T07:33:13.649Z,0.30
2017-12-14T07:35:42.382Z,0.20
2017-12-14T07:38:10.752Z,0.60
2017-12-14T07:40:39.533Z,0.40
2017-12-14T07:43:14.390Z,0.55
2017-12-14T07:49:07.378Z,0.50
2017-12-14T07:51:35.771Z,0.85
2017-12-14T07:54:04.146Z,0.60
2017-12-14T07:56:32.678Z,0.45
2017-12-14T07:59:01.057Z,0.50
2017-12-14T08:01:29.436Z,0.40
2017-12-14T08:03:58.048Z,0.50
2017-12-14T08:06:26.460Z,0.80
2017-12-14T08:08:55.035Z,0.70
2017-12-14T08:11:23.420Z,0.55
2017-12-14T08:13:51.802Z,0.50
2017-12-14T08:16:21.045Z,0.62
2017-12-14T08:18:49.434Z,0.37
2017-12-14T08:21:18.782Z,0.40
2017-12-14T08:23:47.176Z,0.40
2017-12-14T08:26:15.566Z,0.60
2017-12-14T08:28:43.981Z,0.45
2017-12-14T08:31:13.109Z,0.30
2017-12-14T08:33:41.706Z,0.80
2017-12-14T08:36:10.086Z,0.95
2017-12-14T08:38:38.469Z,0.45
2017-12-14T08:41:07.076Z,0.82
2017-12-14T08:43:35.470Z,0.40
2017-12-14T08:46:04.910Z,0.68
2017-12-14T08:48:33.269Z,0.65
2017-12-14T08:51:01.672Z,0.75
2017-12-14T08:53:30.072Z,0.80
2017-12-14T08:55:58.463Z,0.80
2017-12-14T08:58:26.866Z,0.60
2017-12-14T09:00:55.259Z,1.45
2017-12-14T09:03:24.399Z,0.70
2017-12-14T09:05:52.822Z,0.55
2017-12-14T09:08:21.965Z,1.00
2017-12-14T09:10:50.366Z,0.47
2017-12-14T09:13:18.733Z,0.70
2017-12-14T09:15:47.096Z,0.93
2017-12-14T09:18:15.631Z,0.93
2017-12-14T09:20:43.999Z,1.08
2017-12-14T09:23:12.404Z,1.02
2017-12-14T09:25:41.545Z,0.68
2017-12-14T09:28:09.925Z,0.60
2017-12-14T09:30:38.322Z,0.65
2017-12-14T09:33:06.717Z,1.08
2017-12-14T09:35:35.177Z,1.00
2017-12-14T09:38:03.551Z,0.80
2017-12-14T09:40:31.953Z,0.80
2017-12-14T09:43:00.362Z,0.80
2017-12-14T09:45:28.756Z,0.77
2017-12-14T09:47:57.456Z,1.20
2017-12-14T09:50:25.856Z,1.00
2017-12-14T09:52:54.255Z,0.70
2017-12-14T09:55:22.698Z,0.65
2017-12-14T09:57:51.075Z,0.70
2017-12-14T10:00:19.813Z,0.68
2017-12-14T10:02:48.198Z,0.70
2017-12-14T10:05:16.578Z,0.80
2017-12-14T10:07:45.006Z,0.60
2017-12-14T10:10:13.422Z,1.17
2017-12-14T10:12:42.070Z,0.85
2017-12-14T10:15:10.543Z,1.12
2017-12-14T10:17:38.953Z,0.60
2017-12-14T10:20:07.402Z,0.77
2017-12-14T10:22:35.789Z,0.50
2017-12-14T10:25:04.296Z,0.55
2017-12-14T10:27:33.488Z,0.85
2017-12-14T10:30:02.656Z,0.85
2017-12-14T10:32:31.054Z,0.60
2017-12-14T10:34:59.423Z,1.35
2017-12-14T10:37:27.857Z,1.37
2017-12-14T10:39:56.310Z,0.50
2017-12-14T10:42:24.710Z,0.65
2017-12-14T10:44:53.134Z,0.90
2017-12-14T10:47:21.514Z,0.50
2017-12-14T10:49:50.405Z,1.25
2017-12-14T10:52:18.790Z,1.30
2017-12-14T10:54:47.185Z,0.90
2017-12-14T10:57:15.637Z,0.75
2017-12-14T10:59:44.029Z,0.70
2017-12-14T11:02:12.451Z,0.70
2017-12-14T11:04:41.602Z,0.57
2017-12-14T11:07:10.481Z,0.95
2017-12-14T11:09:38.852Z,0.90
2017-12-14T11:12:07.229Z,0.80
2017-12-14T11:14:35.629Z,0.88
2017-12-14T11:17:04.029Z,0.80
2017-12-14T11:19:32.540Z,0.88
2017-12-14T11:22:01.689Z,1.55
2017-12-14T11:24:30.102Z,1.35
2017-12-14T11:26:59.281Z,1.48
2017-12-14T11:29:27.656Z,1.45
2017-12-14T11:31:56.089Z,0.70
2017-12-14T11:34:24.485Z,0.75
2017-12-14T11:36:52.870Z,0.98
2017-12-14T11:39:21.278Z,0.90
2017-12-14T11:41:49.681Z,1.05
2017-12-14T11:44:18.893Z,0.73
2017-12-14T11:46:47.285Z,0.88
2017-12-14T11:49:15.665Z,0.60
2017-12-14T11:51:44.069Z,0.60
2017-12-14T11:54:12.463Z,1.00
2017-12-14T11:56:40.973Z,0.65
2017-12-14T11:59:10.134Z,1.12
2017-12-14T12:01:38.514Z,0.60
2017-12-14T12:04:06.914Z,1.20
2017-12-14T12:06:35.302Z,0.85
2017-12-14T12:09:03.779Z,0.50
2017-12-14T12:11:32.153Z,0.93
2017-12-14T12:14:00.552Z,0.70
2017-12-14T12:16:28.979Z,0.80
2017-12-14T12:18:57.359Z,0.62
2017-12-14T12:21:25.857Z,1.10
2017-12-14T12:23:54.226Z,1.20
2017-12-14T12:26:22.611Z,1.10
2017-12-14T12:28:51.021Z,0.77
2017-12-14T12:31:20.156Z,0.95
2017-12-14T12:33:48.969Z,1.20
2017-12-14T12:36:17.351Z,0.90
2017-12-14T12:38:45.737Z,1.92
2017-12-14T12:41:14.138Z,1.65
2017-12-14T12:43:42.506Z,1.02
2017-12-14T12:46:11.700Z,1.37
2017-12-14T12:48:40.088Z,1.20
2017-12-14T12:51:09.231Z,1.15
2017-12-14T12:53:37.634Z,1.25
2017-12-14T12:56:06.011Z,0.95
2017-12-14T12:58:34.449Z,1.33
2017-12-14T13:01:02.818Z,1.77
2017-12-14T13:03:31.224Z,1.20
2017-12-14T13:05:59.623Z,1.20
2017-12-14T13:11:02.653Z,1.58
2017-12-14T13:13:31.028Z,1.12
2017-12-14T13:15:59.396Z,1.12
2017-12-14T13:18:27.790Z,1.55
2017-12-14T13:20:56.154Z,1.37
2017-12-14T13:23:25.165Z,1.80
2017-12-14T13:25:53.556Z,1.15
2017-12-14T13:28:22.731Z,2.10
2017-12-14T13:30:52.004Z,2.12
2017-12-14T13:33:20.367Z,1.30
2017-12-14T13:35:49.030Z,1.85
2017-12-14T13:38:17.408Z,1.40
2017-12-14T13:40:45.786Z,1.62
2017-12-14T13:43:14.194Z,1.50
2017-12-14T13:45:42.570Z,1.20
2017-12-14T13:48:11.101Z,2.15
2017-12-14T13:50:40.255Z,1.67
2017-12-14T13:53:08.638Z,1.50
2017-12-14T13:55:37.043Z,1.83
2017-12-14T13:58:05.422Z,1.70
2017-12-14T14:00:34.065Z,1.75
2017-12-14T14:03:02.437Z,1.37
2017-12-14T14:05:30.835Z,2.50
2017-12-14T14:07:59.237Z,2.08
2017-12-14T14:10:27.671Z,1.42
2017-12-14T14:12:56.483Z,2.35
2017-12-14T14:15:24.847Z,1.92
2017-12-14T14:17:53.217Z,1.98
2017-12-14T14:20:21.621Z,1.52
2017-12-14T14:22:50.004Z,1.50
2017-12-14T14:25:18.366Z,2.53
2017-12-14T14:27:46.770Z,1.90
2017-12-14T14:30:15.253Z,2.28
2017-12-14T14:32:43.695Z,1.77
2017-12-14T14:35:12.154Z,1.45
2017-12-14T14:37:40.583Z,2.08
2017-12-14T14:40:09.094Z,2.05
2017-12-14T14:42:37.532Z,2.25
2017-12-14T14:45:06.081Z,1.90
2017-12-14T14:47:34.459Z,1.95
2017-12-14T14:50:02.932Z,1.50
2017-12-14T14:52:31.418Z,2.00
2017-12-14T14:54:59.886Z,2.30
2017-12-14T14:57:29.211Z,2.35
2017-12-14T14:59:58.878Z,2.22
2017-12-14T15:02:27.341Z,4.00
2017-12-14T15:04:55.805Z,2.55
2017-12-14T15:07:24.687Z,2.45
2017-12-14T15:09:53.920Z,1.85
2017-12-14T15:12:22.367Z,1.92
2017-12-14T15:14:52.602Z,2.33
2017-12-14T15:17:21.447Z,4.37
2017-12-14T15:19:50.275Z,2.83
2017-12-14T15:22:19.200Z,2.17
2017-12-14T15:24:48.023Z,1.50
2017-12-14T15:27:16.813Z,1.90
2017-12-14T15:29:45.902Z,1.95
2017-12-14T15:32:15.267Z,1.50
2017-12-14T15:34:44.774Z,2.08
2017-12-14T15:37:13.773Z,1.60
2017-12-14T15:39:43.221Z,2.17
2017-12-14T15:42:11.651Z,2.08
2017-12-14T15:44:40.085Z,2.05
2017-12-14T15:47:08.542Z,2.37
2017-12-14T15:49:36.915Z,1.65
2017-12-14T15:52:05.348Z,2.28
2017-12-14T15:54:33.844Z,1.98
2017-12-14T15:57:02.205Z,1.45
2017-12-14T15:59:30.643Z,1.55
2017-12-14T16:01:59.028Z,1.80
2017-12-14T16:04:27.414Z,1.77
2017-12-14T16:06:55.942Z,1.25
2017-12-14T16:09:24.343Z,1.92
2017-12-14T16:11:53.106Z,1.70
2017-12-14T16:14:21.811Z,1.05
2017-12-14T16:16:50.235Z,1.08
2017-12-14T16:19:19.189Z,2.75
2017-12-14T16:21:47.815Z,1.23
2017-12-14T16:24:16.381Z,2.28
2017-12-14T16:26:44.841Z,1.90
2017-12-14T16:29:13.199Z,1.70
2017-12-14T16:31:42.411Z,1.50
2017-12-14T16:34:10.836Z,1.55
2017-12-14T16:36:39.611Z,2.55
2017-12-14T16:39:07.974Z,1.60
2017-12-14T16:41:36.489Z,1.40
2017-12-14T16:44:04.914Z,1.40
2017-12-14T16:46:33.415Z,1.73
2017-12-14T16:49:01.892Z,0.90
2017-12-14T16:51:30.272Z,1.05
2017-12-14T16:53:58.752Z,1.35
2017-12-14T16:56:27.281Z,1.42
2017-12-14T16:58:55.849Z,1.45
2017-12-14T17:01:24.962Z,1.12
2017-12-14T17:03:53.486Z,1.30
2017-12-14T17:06:22.216Z,1.20
2017-12-14T17:08:50.796Z,1.33
2017-12-14T17:11:19.318Z,1.95
2017-12-14T17:13:48.515Z,1.90
2017-12-14T17:16:16.893Z,1.00
2017-12-14T17:18:46.153Z,0.82
2017-12-14T17:21:14.625Z,2.85
2017-12-14T17:23:46.238Z,6.30
2017-12-14T17:26:15.652Z,1.05
2017-12-14T17:28:44.374Z,0.80
2017-12-14T17:31:12.771Z,1.12
2017-12-14T17:33:41.289Z,1.17
2017-12-14T17:38:46.025Z,1.20
2017-12-14T17:41:14.556Z,0.60
2017-12-14T17:43:43.032Z,0.90
2017-12-14T17:46:11.919Z,1.00
2017-12-14T17:48:41.638Z,1.12
2017-12-14T17:51:11.751Z,1.23
2017-12-14T17:53:42.188Z,0.65
2017-12-14T17:56:12.411Z,0.90
2017-12-14T17:58:44.002Z,0.95
2017-12-14T18:01:17.775Z,0.55
2017-12-14T18:03:51.465Z,1.37
2017-12-14T18:06:24.476Z,0.80
2017-12-14T18:08:56.661Z,0.90
2017-12-14T18:11:26.950Z,0.80
2017-12-14T18:13:58.337Z,0.85
2017-12-14T18:16:28.829Z,0.90
2017-12-14T18:18:59.344Z,0.95
2017-12-14T18:21:32.439Z,1.15
2017-12-14T18:24:04.499Z,1.17
2017-12-14T18:26:33.759Z,0.90
2017-12-14T18:29:03.024Z,2.25
2017-12-14T18:31:32.045Z,1.15
2017-12-14T18:34:01.360Z,1.12
2017-12-14T18:36:33.560Z,1.70
2017-12-14T18:39:04.006Z,1.80
2017-12-14T18:41:36.565Z,5.45
2017-12-14T18:44:08.320Z,8.48
2017-12-14T18:46:38.560Z,9.98
2017-12-14T18:49:08.675Z,6.07
2017-12-14T18:51:37.819Z,9.10
2017-12-14T18:54:06.705Z,6.60
2017-12-14T18:56:35.723Z,12.52
2017-12-14T18:59:05.041Z,3.50
2017-12-14T19:01:34.929Z,8.00
2017-12-14T19:04:04.116Z,3.80
2017-12-14T19:06:33.682Z,2.10
2017-12-14T19:09:02.549Z,3.08
2017-12-14T19:11:31.346Z,2.95
2017-12-14T19:14:00.886Z,4.20
2017-12-14T19:16:29.824Z,7.60
2017-12-14T19:18:59.879Z,4.03
2017-12-14T19:21:28.832Z,1.45
2017-12-14T19:23:57.573Z,0.80
2017-12-14T19:26:26.432Z,1.08
2017-12-14T19:28:55.364Z,0.90
2017-12-14T19:31:24.228Z,0.95
2017-12-14T19:33:53.037Z,1.05
2017-12-14T19:36:22.341Z,1.77
2017-12-14T19:38:51.676Z,0.95
2017-12-14T19:41:20.643Z,0.60
2017-12-14T19:43:50.413Z,1.00
2017-12-14T19:46:18.950Z,1.00
2017-12-14T19:48:47.590Z,1.20
2017-12-14T19:51:17.264Z,0.82
2017-12-14T19:53:46.108Z,0.70
2017-12-14T19:56:14.723Z,0.70
2017-12-14T19:58:43.246Z,0.70
2017-12-14T20:01:11.777Z,1.00
2017-12-14T20:03:40.347Z,0.50
2017-12-14T20:06:08.853Z,0.80
2017-12-14T20:08:37.737Z,0.50
2017-12-14T20:11:06.214Z,1.00
2017-12-14T20:13:34.597Z,0.52
2017-12-14T20:16:03.058Z,1.17
2017-12-14T20:18:31.736Z,0.80
2017-12-14T20:21:01.076Z,0.85
2017-12-14T20:23:29.755Z,0.50
2017-12-14T20:25:58.183Z,0.70
2017-12-14T20:28:26.574Z,1.15
2017-12-14T20:30:55.852Z,0.75
2017-12-14T20:33:26.011Z,1.40
2017-12-14T20:35:54.509Z,4.45
2017-12-14T20:38:22.921Z,2.05
2017-12-14T20:40:51.358Z,1.50
2017-12-14T20:43:20.142Z,0.60
2017-12-14T20:45:49.315Z,1.70
2017-12-14T20:48:17.851Z,0.73
2017-12-14T20:50:46.682Z,1.10
2017-12-14T20:53:15.739Z,0.80
2017-12-14T20:55:44.867Z,0.70
2017-12-14T20:58:13.927Z,0.60
2017-12-14T21:00:44.134Z,0.62
2017-12-14T21:03:13.732Z,1.10
2017-12-14T21:05:45.328Z,1.95
2017-12-14T21:08:14.408Z,1.05
2017-12-14T21:10:44.471Z,1.10
2017-12-14T21:13:16.189Z,1.45
2017-12-14T21:15:46.052Z,1.27
2017-12-14T21:18:15.711Z,5.57
2017-12-14T21:20:45.777Z,3.80
2017-12-14T21:23:16.225Z,5.40
2017-12-14T21:25:45.743Z,1.73
2017-12-14T21:28:15.155Z,1.17
2017-12-14T21:30:44.900Z,1.95
2017-12-14T21:33:15.745Z,6.15
2017-12-14T21:35:45.920Z,8.75
2017-12-14T21:38:14.941Z,14.57
2017-12-14T21:40:44.145Z,15.40
2017-12-14T21:43:13.594Z,39.08
2017-12-14T21:45:42.736Z,35.88
2017-12-14T21:48:11.713Z,5.55
2017-12-14T21:50:42.837Z,9.38
2017-12-14T21:53:11.875Z,19.42
2017-12-14T21:55:40.894Z,17.25
2017-12-14T21:58:15.850Z,12.57
2017-12-14T22:00:45.196Z,12.95
2017-12-14T22:03:15.550Z,5.45
2017-12-14T22:05:47.868Z,11.50
2017-12-14T22:08:21.054Z,10.68
2017-12-14T22:10:55.495Z,3.50
2017-12-14T22:13:25.942Z,12.85
2017-12-14T22:16:00.093Z,1.35
2017-12-14T22:18:31.391Z,3.37
2017-12-14T22:21:02.712Z,6.50
2017-12-14T22:23:34.846Z,4.82
2017-12-14T22:26:08.473Z,2.67
2017-12-14T22:28:43.040Z,3.30
2017-12-14T22:31:20.756Z,6.00
2017-12-14T22:33:53.373Z,0.80
2017-12-14T22:36:24.297Z,1.20
2017-12-14T22:38:55.872Z,1.12
2017-12-14T22:41:29.609Z,0.73
2017-12-14T22:44:02.870Z,11.30
2017-12-14T22:46:35.821Z,7.50
2017-12-14T22:49:12.926Z,6.15
2017-12-14T22:51:47.323Z,2.92
2017-12-14T22:54:25.576Z,4.28
2017-12-14T22:56:58.391Z,2.20
2017-12-14T22:59:30.668Z,1.55
2017-12-14T23:02:03.097Z,3.55
2017-12-14T23:04:39.948Z,0.73
2017-12-14T23:07:12.031Z,2.58
2017-12-14T23:09:45.016Z,2.78
2017-12-14T23:12:18.396Z,0.75
2017-12-14T23:14:50.075Z,2.83
2017-12-14T23:17:20.374Z,2.45
2017-12-14T23:19:49.434Z,0.70
2017-12-14T23:22:20.067Z,2.50
2017-12-14T23:25:00.563Z,0.70
2017-12-14T23:27:30.029Z,0.70
2017-12-14T23:29:58.884Z,1.55
2017-12-14T23:32:27.948Z,3.10
2017-12-14T23:34:57.767Z,1.02
2017-12-14T23:37:26.722Z,1.95
2017-12-14T23:39:58.030Z,2.83
2017-12-14T23:42:27.441Z,1.80
2017-12-14T23:44:56.532Z,2.87
2017-12-14T23:47:27.131Z,2.37
2017-12-14T23:49:56.672Z,4.18
2017-12-14T23:52:28.546Z,2.33
2017-12-14T23:54:58.660Z,5.97
2017-12-14T23:57:37.464Z,3.17
